sensor_id;sensor_type;location;lat;lon;timestamp;P1;durP1;ratioP1;P2;durP2;ratioP2
65279;SDS011;51878;55.748;48.742;2023-07-31T00:03:47;5.10;;;4.60;;
65279;SDS011;51878;55.748;48.742;2023-07-31T00:08:49;10.70;;;3.97;;
65279;SDS011;51878;55.748;48.742;2023-07-31T00:13:52;7.85;;;3.88;;
65279;SDS011;51878;55.748;48.742;2023-07-31T00:18:55;5.97;;;3.92;;
65279;SDS011;51878;55.748;48.742;2023-07-31T00:23:57;9.50;;;5.53;;
65279;SDS011;51878;55.748;48.742;2023-07-31T00:28:59;8.35;;;7.15;;
65279;SDS011;51878;55.748;48.742;2023-07-31T00:34:01;6.93;;;5.53;;
65279;SDS011;51878;55.748;48.742;2023-07-31T00:39:04;5.45;;;4.60;;
65279;SDS011;51878;55.748;48.742;2023-07-31T00:44:06;8.05;;;3.90;;
65279;SDS011;51878;55.748;48.742;2023-07-31T00:49:08;5.68;;;3.50;;
65279;SDS011;51878;55.748;48.742;2023-07-31T00:54:11;5.35;;;3.15;;
65279;SDS011;51878;55.748;48.742;2023-07-31T00:59:14;3.00;;;2.70;;
65279;SDS011;51878;55.748;48.742;2023-07-31T01:04:17;4.65;;;2.70;;
65279;SDS011;51878;55.748;48.742;2023-07-31T01:09:34;4.20;;;2.30;;
65279;SDS011;51878;55.748;48.742;2023-07-31T01:20:12;6.25;;;2.95;;
65279;SDS011;51878;55.748;48.742;2023-07-31T01:30:27;2.75;;;2.30;;
65279;SDS011;51878;55.748;48.742;2023-07-31T01:35:35;3.30;;;2.40;;
65279;SDS011;51878;55.748;48.742;2023-07-31T01:40:41;3.47;;;2.40;;
65279;SDS011;51878;55.748;48.742;2023-07-31T01:45:44;3.60;;;2.50;;
65279;SDS011;51878;55.748;48.742;2023-07-31T01:50:46;4.18;;;2.15;;
65279;SDS011;51878;55.748;48.742;2023-07-31T01:55:49;10.27;;;2.60;;
65279;SDS011;51878;55.748;48.742;2023-07-31T02:00:51;3.65;;;2.40;;
65279;SDS011;51878;55.748;48.742;2023-07-31T02:05:53;2.80;;;1.92;;
65279;SDS011;51878;55.748;48.742;2023-07-31T02:10:56;3.88;;;1.92;;
65279;SDS011;51878;55.748;48.742;2023-07-31T02:15:58;3.30;;;2.08;;
65279;SDS011;51878;55.748;48.742;2023-07-31T02:21:00;2.85;;;1.80;;
65279;SDS011;51878;55.748;48.742;2023-07-31T02:26:03;3.92;;;2.00;;
65279;SDS011;51878;55.748;48.742;2023-07-31T02:31:05;4.40;;;1.90;;
65279;SDS011;51878;55.748;48.742;2023-07-31T02:36:07;3.15;;;1.50;;
65279;SDS011;51878;55.748;48.742;2023-07-31T02:41:09;3.65;;;1.50;;
65279;SDS011;51878;55.748;48.742;2023-07-31T02:46:11;5.35;;;1.80;;
65279;SDS011;51878;55.748;48.742;2023-07-31T02:51:14;2.38;;;1.55;;
65279;SDS011;51878;55.748;48.742;2023-07-31T02:56:16;2.05;;;1.75;;
65279;SDS011;51878;55.748;48.742;2023-07-31T03:01:18;2.95;;;1.92;;
65279;SDS011;51878;55.748;48.742;2023-07-31T03:06:20;6.45;;;2.03;;
65279;SDS011;51878;55.748;48.742;2023-07-31T03:11:23;3.08;;;1.90;;
65279;SDS011;51878;55.748;48.742;2023-07-31T03:16:25;6.25;;;2.08;;
65279;SDS011;51878;55.748;48.742;2023-07-31T03:21:27;2.95;;;1.75;;
65279;SDS011;51878;55.748;48.742;2023-07-31T03:26:31;4.45;;;1.55;;
65279;SDS011;51878;55.748;48.742;2023-07-31T03:31:33;2.55;;;1.55;;
65279;SDS011;51878;55.748;48.742;2023-07-31T03:36:35;2.95;;;1.60;;
65279;SDS011;51878;55.748;48.742;2023-07-31T03:41:38;2.90;;;1.20;;
65279;SDS011;51878;55.748;48.742;2023-07-31T03:46:40;1.73;;;1.25;;
65279;SDS011;51878;55.748;48.742;2023-07-31T03:51:43;4.32;;;1.10;;
65279;SDS011;51878;55.748;48.742;2023-07-31T03:56:46;1.38;;;1.10;;
65279;SDS011;51878;55.748;48.742;2023-07-31T04:01:48;1.80;;;1.10;;
65279;SDS011;51878;55.748;48.742;2023-07-31T04:06:50;1.58;;;1.00;;
65279;SDS011;51878;55.748;48.742;2023-07-31T04:11:53;1.92;;;1.00;;
65279;SDS011;51878;55.748;48.742;2023-07-31T04:16:55;2.47;;;1.10;;
65279;SDS011;51878;55.748;48.742;2023-07-31T04:21:57;2.10;;;1.00;;
65279;SDS011;51878;55.748;48.742;2023-07-31T04:26:59;3.72;;;1.15;;
65279;SDS011;51878;55.748;48.742;2023-07-31T04:32:02;1.10;;;1.08;;
65279;SDS011;51878;55.748;48.742;2023-07-31T04:37:04;1.50;;;1.10;;
65279;SDS011;51878;55.748;48.742;2023-07-31T04:42:06;1.65;;;1.15;;
65279;SDS011;51878;55.748;48.742;2023-07-31T04:47:08;1.50;;;1.20;;
65279;SDS011;51878;55.748;48.742;2023-07-31T04:52:11;3.17;;;1.10;;
65279;SDS011;51878;55.748;48.742;2023-07-31T04:57:13;1.27;;;1.10;;
65279;SDS011;51878;55.748;48.742;2023-07-31T05:02:16;3.50;;;1.00;;
65279;SDS011;51878;55.748;48.742;2023-07-31T05:07:18;1.25;;;0.90;;
65279;SDS011;51878;55.748;48.742;2023-07-31T05:12:21;1.00;;;0.90;;
65279;SDS011;51878;55.748;48.742;2023-07-31T05:17:23;1.58;;;0.73;;
65279;SDS011;51878;55.748;48.742;2023-07-31T05:22:25;1.33;;;0.73;;
65279;SDS011;51878;55.748;48.742;2023-07-31T05:27:28;3.28;;;1.00;;
65279;SDS011;51878;55.748;48.742;2023-07-31T05:32:30;2.53;;;1.10;;
65279;SDS011;51878;55.748;48.742;2023-07-31T05:37:32;2.35;;;1.20;;
65279;SDS011;51878;55.748;48.742;2023-07-31T05:42:34;1.88;;;1.20;;
65279;SDS011;51878;55.748;48.742;2023-07-31T05:47:39;4.57;;;1.10;;
65279;SDS011;51878;55.748;48.742;2023-07-31T05:52:42;3.97;;;0.95;;
65279;SDS011;51878;55.748;48.742;2023-07-31T05:57:44;1.77;;;1.08;;
65279;SDS011;51878;55.748;48.742;2023-07-31T06:02:47;1.40;;;0.90;;
65279;SDS011;51878;55.748;48.742;2023-07-31T06:07:50;0.38;;;0.38;;
65279;SDS011;51878;55.748;48.742;2023-07-31T06:12:52;1.00;;;0.80;;
65279;SDS011;51878;55.748;48.742;2023-07-31T06:17:55;1.65;;;0.85;;
65279;SDS011;51878;55.748;48.742;2023-07-31T06:22:57;0.98;;;0.90;;
65279;SDS011;51878;55.748;48.742;2023-07-31T06:28:00;0.90;;;0.90;;
65279;SDS011;51878;55.748;48.742;2023-07-31T06:33:02;1.75;;;0.70;;
65279;SDS011;51878;55.748;48.742;2023-07-31T06:38:04;1.35;;;0.70;;
65279;SDS011;51878;55.748;48.742;2023-07-31T06:43:07;1.15;;;1.00;;
65279;SDS011;51878;55.748;48.742;2023-07-31T06:48:12;11.85;;;1.15;;
65279;SDS011;51878;55.748;48.742;2023-07-31T06:53:14;1.05;;;0.75;;
65279;SDS011;51878;55.748;48.742;2023-07-31T06:58:17;3.40;;;0.80;;
65279;SDS011;51878;55.748;48.742;2023-07-31T07:03:19;1.70;;;0.80;;
65279;SDS011;51878;55.748;48.742;2023-07-31T07:08:22;1.75;;;0.80;;
65279;SDS011;51878;55.748;48.742;2023-07-31T07:13:27;2.40;;;0.65;;
65279;SDS011;51878;55.748;48.742;2023-07-31T07:18:29;1.33;;;0.75;;
65279;SDS011;51878;55.748;48.742;2023-07-31T07:23:32;0.85;;;0.70;;
65279;SDS011;51878;55.748;48.742;2023-07-31T07:28:34;0.50;;;0.50;;
65279;SDS011;51878;55.748;48.742;2023-07-31T07:33:38;0.88;;;0.60;;
65279;SDS011;51878;55.748;48.742;2023-07-31T07:38:41;0.75;;;0.57;;
65279;SDS011;51878;55.748;48.742;2023-07-31T07:43:43;1.52;;;0.90;;
65279;SDS011;51878;55.748;48.742;2023-07-31T07:48:46;3.05;;;0.88;;
65279;SDS011;51878;55.748;48.742;2023-07-31T07:53:48;0.70;;;0.70;;
65279;SDS011;51878;55.748;48.742;2023-07-31T07:58:50;1.75;;;0.90;;
65279;SDS011;51878;55.748;48.742;2023-07-31T08:03:52;1.10;;;0.80;;
65279;SDS011;51878;55.748;48.742;2023-07-31T08:08:55;0.73;;;0.73;;
65279;SDS011;51878;55.748;48.742;2023-07-31T08:13:57;2.97;;;0.88;;
65279;SDS011;51878;55.748;48.742;2023-07-31T08:19:00;4.35;;;0.90;;
65279;SDS011;51878;55.748;48.742;2023-07-31T08:24:02;2.83;;;0.70;;
65279;SDS011;51878;55.748;48.742;2023-07-31T08:29:04;2.90;;;0.80;;
65279;SDS011;51878;55.748;48.742;2023-07-31T08:34:06;1.05;;;0.80;;
65279;SDS011;51878;55.748;48.742;2023-07-31T08:39:09;3.22;;;0.75;;
65279;SDS011;51878;55.748;48.742;2023-07-31T08:44:12;1.20;;;1.00;;
65279;SDS011;51878;55.748;48.742;2023-07-31T08:49:17;3.80;;;1.00;;
65279;SDS011;51878;55.748;48.742;2023-07-31T08:54:21;0.75;;;0.75;;
65279;SDS011;51878;55.748;48.742;2023-07-31T08:59:24;5.28;;;0.90;;
65279;SDS011;51878;55.748;48.742;2023-07-31T09:04:27;1.33;;;0.82;;
65279;SDS011;51878;55.748;48.742;2023-07-31T09:09:30;0.80;;;0.80;;
65279;SDS011;51878;55.748;48.742;2023-07-31T09:14:33;0.85;;;0.70;;
65279;SDS011;51878;55.748;48.742;2023-07-31T09:19:37;0.85;;;0.60;;
65279;SDS011;51878;55.748;48.742;2023-07-31T09:24:39;0.68;;;0.65;;
65279;SDS011;51878;55.748;48.742;2023-07-31T09:29:42;0.88;;;0.70;;
65279;SDS011;51878;55.748;48.742;2023-07-31T09:34:44;1.40;;;0.70;;
65279;SDS011;51878;55.748;48.742;2023-07-31T09:39:47;1.48;;;0.75;;
65279;SDS011;51878;55.748;48.742;2023-07-31T09:44:49;0.88;;;0.70;;
65279;SDS011;51878;55.748;48.742;2023-07-31T09:49:52;1.67;;;0.50;;
65279;SDS011;51878;55.748;48.742;2023-07-31T09:54:54;0.57;;;0.50;;
65279;SDS011;51878;55.748;48.742;2023-07-31T09:59:56;0.50;;;0.50;;
65279;SDS011;51878;55.748;48.742;2023-07-31T10:05:01;3.83;;;0.70;;
65279;SDS011;51878;55.748;48.742;2023-07-31T10:10:06;1.85;;;0.60;;
65279;SDS011;51878;55.748;48.742;2023-07-31T10:15:10;0.50;;;0.50;;
65279;SDS011;51878;55.748;48.742;2023-07-31T10:20:13;0.93;;;0.45;;
65279;SDS011;51878;55.748;48.742;2023-07-31T10:25:20;4.72;;;0.60;;
65279;SDS011;51878;55.748;48.742;2023-07-31T10:30:32;1.80;;;0.63;;
65279;SDS011;51878;55.748;48.742;2023-07-31T10:35:39;0.50;;;0.50;;
65279;SDS011;51878;55.748;48.742;2023-07-31T10:40:41;0.65;;;0.50;;
65279;SDS011;51878;55.748;48.742;2023-07-31T10:45:44;0.65;;;0.63;;
65279;SDS011;51878;55.748;48.742;2023-07-31T10:50:50;0.50;;;0.50;;
65279;SDS011;51878;55.748;48.742;2023-07-31T10:56:08;0.60;;;0.60;;
65279;SDS011;51878;55.748;48.742;2023-07-31T11:01:14;1.35;;;0.60;;
65279;SDS011;51878;55.748;48.742;2023-07-31T11:06:16;2.20;;;1.30;;
65279;SDS011;51878;55.748;48.742;2023-07-31T11:11:20;0.43;;;0.40;;
65279;SDS011;51878;55.748;48.742;2023-07-31T11:16:24;0.40;;;0.40;;
65279;SDS011;51878;55.748;48.742;2023-07-31T11:21:27;4.18;;;0.60;;
65279;SDS011;51878;55.748;48.742;2023-07-31T11:26:30;9.25;;;0.90;;
65279;SDS011;51878;55.748;48.742;2023-07-31T11:31:32;1.85;;;0.50;;
65279;SDS011;51878;55.748;48.742;2023-07-31T11:36:40;1.48;;;0.60;;
65279;SDS011;51878;55.748;48.742;2023-07-31T11:41:58;6.90;;;3.13;;
65279;SDS011;51878;55.748;48.742;2023-07-31T11:47:01;0.50;;;0.50;;
65279;SDS011;51878;55.748;48.742;2023-07-31T11:52:05;1.30;;;0.50;;
65279;SDS011;51878;55.748;48.742;2023-07-31T11:57:08;1.63;;;0.50;;
65279;SDS011;51878;55.748;48.742;2023-07-31T12:02:10;0.30;;;0.30;;
65279;SDS011;51878;55.748;48.742;2023-07-31T12:07:13;1.92;;;0.90;;
65279;SDS011;51878;55.748;48.742;2023-07-31T12:12:19;0.40;;;0.40;;
65279;SDS011;51878;55.748;48.742;2023-07-31T12:17:22;0.30;;;0.30;;
65279;SDS011;51878;55.748;48.742;2023-07-31T12:22:24;8.52;;;4.05;;
65279;SDS011;51878;55.748;48.742;2023-07-31T12:27:32;2.33;;;0.85;;
65279;SDS011;51878;55.748;48.742;2023-07-31T12:32:35;1.55;;;0.60;;
65279;SDS011;51878;55.748;48.742;2023-07-31T12:37:37;1.27;;;0.60;;
65279;SDS011;51878;55.748;48.742;2023-07-31T12:42:40;6.13;;;0.80;;
65279;SDS011;51878;55.748;48.742;2023-07-31T12:47:43;1.75;;;0.40;;
65279;SDS011;51878;55.748;48.742;2023-07-31T12:52:45;0.65;;;0.30;;
65279;SDS011;51878;55.748;48.742;2023-07-31T12:57:47;2.05;;;0.40;;
65279;SDS011;51878;55.748;48.742;2023-07-31T13:02:50;0.60;;;0.60;;
65279;SDS011;51878;55.748;48.742;2023-07-31T13:07:52;10.60;;;5.43;;
65279;SDS011;51878;55.748;48.742;2023-07-31T13:12:55;1.92;;;0.40;;
65279;SDS011;51878;55.748;48.742;2023-07-31T13:17:57;2.78;;;1.55;;
65279;SDS011;51878;55.748;48.742;2023-07-31T13:23:00;0.57;;;0.40;;
65279;SDS011;51878;55.748;48.742;2023-07-31T13:28:02;1.83;;;0.50;;
65279;SDS011;51878;55.748;48.742;2023-07-31T13:33:04;0.75;;;0.60;;
65279;SDS011;51878;55.748;48.742;2023-07-31T13:38:10;0.52;;;0.52;;
65279;SDS011;51878;55.748;48.742;2023-07-31T13:43:13;1.45;;;0.50;;
65279;SDS011;51878;55.748;48.742;2023-07-31T13:48:15;1.33;;;0.73;;
65279;SDS011;51878;55.748;48.742;2023-07-31T13:53:17;4.47;;;0.98;;
65279;SDS011;51878;55.748;48.742;2023-07-31T13:58:20;0.90;;;0.50;;
65279;SDS011;51878;55.748;48.742;2023-07-31T14:03:22;1.55;;;0.63;;
65279;SDS011;51878;55.748;48.742;2023-07-31T14:08:25;2.75;;;0.77;;
65279;SDS011;51878;55.748;48.742;2023-07-31T14:13:27;1.83;;;1.30;;
65279;SDS011;51878;55.748;48.742;2023-07-31T14:18:29;4.43;;;1.42;;
65279;SDS011;51878;55.748;48.742;2023-07-31T14:23:32;3.17;;;1.88;;
65279;SDS011;51878;55.748;48.742;2023-07-31T14:28:34;4.07;;;2.33;;
65279;SDS011;51878;55.748;48.742;2023-07-31T14:33:36;2.95;;;1.60;;
65279;SDS011;51878;55.748;48.742;2023-07-31T14:38:39;2.35;;;2.00;;
65279;SDS011;51878;55.748;48.742;2023-07-31T14:43:41;3.83;;;2.20;;
65279;SDS011;51878;55.748;48.742;2023-07-31T14:48:43;3.30;;;2.42;;
65279;SDS011;51878;55.748;48.742;2023-07-31T14:53:45;4.45;;;2.33;;
65279;SDS011;51878;55.748;48.742;2023-07-31T14:58:49;3.50;;;2.38;;
65279;SDS011;51878;55.748;48.742;2023-07-31T15:03:51;3.83;;;2.75;;
65279;SDS011;51878;55.748;48.742;2023-07-31T15:08:53;4.95;;;2.72;;
65279;SDS011;51878;55.748;48.742;2023-07-31T15:13:55;4.05;;;2.50;;
65279;SDS011;51878;55.748;48.742;2023-07-31T15:18:57;3.78;;;3.30;;
65279;SDS011;51878;55.748;48.742;2023-07-31T15:24:00;4.32;;;3.33;;
65279;SDS011;51878;55.748;48.742;2023-07-31T15:29:03;4.32;;;3.08;;
65279;SDS011;51878;55.748;48.742;2023-07-31T15:34:10;4.13;;;3.28;;
65279;SDS011;51878;55.748;48.742;2023-07-31T15:39:12;4.65;;;3.13;;
65279;SDS011;51878;55.748;48.742;2023-07-31T15:44:15;7.07;;;3.03;;
65279;SDS011;51878;55.748;48.742;2023-07-31T15:49:17;3.53;;;3.22;;
65279;SDS011;51878;55.748;48.742;2023-07-31T15:54:20;3.72;;;3.33;;
65279;SDS011;51878;55.748;48.742;2023-07-31T15:59:22;3.97;;;2.95;;
65279;SDS011;51878;55.748;48.742;2023-07-31T16:04:27;2.63;;;2.42;;
65279;SDS011;51878;55.748;48.742;2023-07-31T16:09:29;2.00;;;1.83;;
65279;SDS011;51878;55.748;48.742;2023-07-31T16:14:32;4.05;;;2.70;;
65279;SDS011;51878;55.748;48.742;2023-07-31T16:19:34;2.28;;;1.98;;
65279;SDS011;51878;55.748;48.742;2023-07-31T16:24:39;3.42;;;1.60;;
65279;SDS011;51878;55.748;48.742;2023-07-31T16:29:41;1.63;;;1.52;;
65279;SDS011;51878;55.748;48.742;2023-07-31T16:34:44;3.08;;;1.55;;
65279;SDS011;51878;55.748;48.742;2023-07-31T16:39:46;3.08;;;1.90;;
65279;SDS011;51878;55.748;48.742;2023-07-31T16:44:50;1.75;;;1.65;;
65279;SDS011;51878;55.748;48.742;2023-07-31T16:49:52;1.60;;;1.50;;
65279;SDS011;51878;55.748;48.742;2023-07-31T16:54:55;1.80;;;1.70;;
65279;SDS011;51878;55.748;48.742;2023-07-31T16:59:57;4.03;;;1.63;;
65279;SDS011;51878;55.748;48.742;2023-07-31T17:04:59;1.45;;;1.38;;
65279;SDS011;51878;55.748;48.742;2023-07-31T17:10:02;1.50;;;1.40;;
65279;SDS011;51878;55.748;48.742;2023-07-31T17:15:05;1.50;;;1.40;;
65279;SDS011;51878;55.748;48.742;2023-07-31T17:20:08;1.60;;;1.50;;
65279;SDS011;51878;55.748;48.742;2023-07-31T17:25:10;1.60;;;1.50;;
65279;SDS011;51878;55.748;48.742;2023-07-31T17:30:13;1.55;;;1.40;;
65279;SDS011;51878;55.748;48.742;2023-07-31T17:35:15;4.82;;;2.03;;
65279;SDS011;51878;55.748;48.742;2023-07-31T17:40:18;1.75;;;1.42;;
65279;SDS011;51878;55.748;48.742;2023-07-31T17:45:20;9.50;;;3.78;;
65279;SDS011;51878;55.748;48.742;2023-07-31T17:50:23;1.77;;;1.63;;
65279;SDS011;51878;55.748;48.742;2023-07-31T17:55:25;14.25;;;5.55;;
65279;SDS011;51878;55.748;48.742;2023-07-31T18:00:27;1.45;;;1.35;;
65279;SDS011;51878;55.748;48.742;2023-07-31T18:05:31;2.63;;;1.40;;
65279;SDS011;51878;55.748;48.742;2023-07-31T18:10:33;1.50;;;1.40;;
65279;SDS011;51878;55.748;48.742;2023-07-31T18:15:36;1.50;;;1.40;;
65279;SDS011;51878;55.748;48.742;2023-07-31T18:20:39;1.45;;;1.35;;
65279;SDS011;51878;55.748;48.742;2023-07-31T18:25:43;1.90;;;1.40;;
65279;SDS011;51878;55.748;48.742;2023-07-31T18:30:45;1.50;;;1.40;;
65279;SDS011;51878;55.748;48.742;2023-07-31T18:35:48;1.80;;;1.50;;
65279;SDS011;51878;55.748;48.742;2023-07-31T18:40:50;1.80;;;1.20;;
65279;SDS011;51878;55.748;48.742;2023-07-31T18:45:52;2.67;;;1.40;;
65279;SDS011;51878;55.748;48.742;2023-07-31T18:50:54;1.42;;;1.33;;
65279;SDS011;51878;55.748;48.742;2023-07-31T18:55:57;1.85;;;1.30;;
65279;SDS011;51878;55.748;48.742;2023-07-31T19:00:59;1.50;;;1.40;;
65279;SDS011;51878;55.748;48.742;2023-07-31T19:06:02;2.20;;;1.50;;
65279;SDS011;51878;55.748;48.742;2023-07-31T19:11:05;1.63;;;1.52;;
65279;SDS011;51878;55.748;48.742;2023-07-31T19:16:09;2.40;;;1.52;;
65279;SDS011;51878;55.748;48.742;2023-07-31T19:21:11;1.83;;;1.45;;
65279;SDS011;51878;55.748;48.742;2023-07-31T19:26:14;2.17;;;1.73;;
65279;SDS011;51878;55.748;48.742;2023-07-31T19:31:17;6.50;;;2.05;;
65279;SDS011;51878;55.748;48.742;2023-07-31T19:36:19;3.15;;;1.63;;
65279;SDS011;51878;55.748;48.742;2023-07-31T19:41:21;4.60;;;2.67;;
65279;SDS011;51878;55.748;48.742;2023-07-31T19:46:24;5.82;;;2.45;;
65279;SDS011;51878;55.748;48.742;2023-07-31T19:51:26;4.05;;;1.80;;
65279;SDS011;51878;55.748;48.742;2023-07-31T19:56:28;3.28;;;2.03;;
65279;SDS011;51878;55.748;48.742;2023-07-31T20:01:30;2.85;;;1.52;;
65279;SDS011;51878;55.748;48.742;2023-07-31T20:06:33;4.10;;;2.20;;
65279;SDS011;51878;55.748;48.742;2023-07-31T20:11:35;3.72;;;2.30;;
65279;SDS011;51878;55.748;48.742;2023-07-31T20:16:39;1.85;;;1.75;;
65279;SDS011;51878;55.748;48.742;2023-07-31T20:21:43;4.55;;;1.98;;
65279;SDS011;51878;55.748;48.742;2023-07-31T20:26:45;1.90;;;1.80;;
65279;SDS011;51878;55.748;48.742;2023-07-31T20:31:47;2.72;;;2.15;;
65279;SDS011;51878;55.748;48.742;2023-07-31T20:36:50;2.25;;;2.00;;
65279;SDS011;51878;55.748;48.742;2023-07-31T20:41:52;4.25;;;2.30;;
65279;SDS011;51878;55.748;48.742;2023-07-31T20:46:54;4.22;;;2.22;;
65279;SDS011;51878;55.748;48.742;2023-07-31T20:51:57;3.03;;;2.08;;
65279;SDS011;51878;55.748;48.742;2023-07-31T20:56:59;2.70;;;2.10;;
65279;SDS011;51878;55.748;48.742;2023-07-31T21:02:01;2.33;;;2.13;;
65279;SDS011;51878;55.748;48.742;2023-07-31T21:07:04;2.65;;;2.45;;
65279;SDS011;51878;55.748;48.742;2023-07-31T21:12:06;4.65;;;3.30;;
65279;SDS011;51878;55.748;48.742;2023-07-31T21:17:09;4.55;;;2.90;;
65279;SDS011;51878;55.748;48.742;2023-07-31T21:22:11;6.35;;;3.33;;
65279;SDS011;51878;55.748;48.742;2023-07-31T21:27:15;5.10;;;3.58;;
65279;SDS011;51878;55.748;48.742;2023-07-31T21:32:17;5.38;;;2.97;;
65279;SDS011;51878;55.748;48.742;2023-07-31T21:37:20;10.82;;;4.20;;
65279;SDS011;51878;55.748;48.742;2023-07-31T21:42:22;5.97;;;3.55;;
65279;SDS011;51878;55.748;48.742;2023-07-31T21:47:25;6.82;;;3.20;;
65279;SDS011;51878;55.748;48.742;2023-07-31T21:52:27;5.60;;;3.05;;
65279;SDS011;51878;55.748;48.742;2023-07-31T21:57:29;4.50;;;3.10;;
65279;SDS011;51878;55.748;48.742;2023-07-31T22:02:31;4.20;;;3.05;;
65279;SDS011;51878;55.748;48.742;2023-07-31T22:07:34;5.57;;;3.08;;
65279;SDS011;51878;55.748;48.742;2023-07-31T22:12:36;6.40;;;2.90;;
65279;SDS011;51878;55.748;48.742;2023-07-31T22:17:38;7.13;;;3.22;;
65279;SDS011;51878;55.748;48.742;2023-07-31T22:22:40;6.18;;;3.17;;
65279;SDS011;51878;55.748;48.742;2023-07-31T22:27:43;6.13;;;3.10;;
65279;SDS011;51878;55.748;48.742;2023-07-31T22:32:45;6.43;;;3.60;;
65279;SDS011;51878;55.748;48.742;2023-07-31T22:37:47;4.18;;;3.08;;
65279;SDS011;51878;55.748;48.742;2023-07-31T22:42:49;6.50;;;4.20;;
65279;SDS011;51878;55.748;48.742;2023-07-31T22:47:52;11.38;;;5.03;;
65279;SDS011;51878;55.748;48.742;2023-07-31T22:52:54;8.68;;;5.20;;
65279;SDS011;51878;55.748;48.742;2023-07-31T22:57:56;13.38;;;6.10;;
65279;SDS011;51878;55.748;48.742;2023-07-31T23:02:59;8.98;;;4.40;;
65279;SDS011;51878;55.748;48.742;2023-07-31T23:08:01;7.00;;;2.63;;
65279;SDS011;51878;55.748;48.742;2023-07-31T23:13:03;4.97;;;2.50;;
65279;SDS011;51878;55.748;48.742;2023-07-31T23:18:05;3.75;;;2.00;;
65279;SDS011;51878;55.748;48.742;2023-07-31T23:23:10;2.42;;;2.22;;
65279;SDS011;51878;55.748;48.742;2023-07-31T23:28:12;5.72;;;2.28;;
65279;SDS011;51878;55.748;48.742;2023-07-31T23:33:14;3.78;;;2.28;;
65279;SDS011;51878;55.748;48.742;2023-07-31T23:38:16;2.60;;;2.40;;
65279;SDS011;51878;55.748;48.742;2023-07-31T23:43:20;4.00;;;2.60;;
65279;SDS011;51878;55.748;48.742;2023-07-31T23:48:23;3.55;;;3.00;;
65279;SDS011;51878;55.748;48.742;2023-07-31T23:53:25;2.53;;;2.30;;
65279;SDS011;51878;55.748;48.742;2023-07-31T23:58:27;5.57;;;2.90;;
